sensor_id;sensor_type;location;lat;lon;timestamp;pressure;altitude;pressure_sealevel;temperature;humidity
57562;BME280;43397;51.530;5.974;2023-04-21T00:01:27;75767.59;;;-145.90;45.20
57562;BME280;43397;51.530;5.974;2023-04-21T00:03:52;75903.38;;;-145.90;46.88
57562;BME280;43397;51.530;5.974;2023-04-21T00:06:19;75868.94;;;-145.90;46.70
57562;BME280;43397;51.530;5.974;2023-04-21T00:08:45;75893.25;;;-145.90;47.06
57562;BME280;43397;51.530;5.974;2023-04-21T00:11:11;75929.75;;;-145.90;47.75
57562;BME280;43397;51.530;5.974;2023-04-21T00:13:36;75929.75;;;-145.90;48.40
57562;BME280;43397;51.530;5.974;2023-04-21T00:16:02;75895.28;;;-145.90;47.77
57562;BME280;43397;51.530;5.974;2023-04-21T00:18:28;75872.97;;;-145.90;47.22
57562;BME280;43397;51.530;5.974;2023-04-21T00:20:54;75962.16;;;-145.90;49.21
57562;BME280;43397;51.530;5.974;2023-04-21T00:23:21;75891.22;;;-145.90;47.94
57562;BME280;43397;51.530;5.974;2023-04-21T00:25:46;75968.25;;;-145.90;49.32
57562;BME280;43397;51.530;5.974;2023-04-21T00:28:12;75917.56;;;-145.90;48.86
57562;BME280;43397;51.530;5.974;2023-04-21T00:30:38;75538.56;;;-145.90;70.13
57562;BME280;43397;51.530;5.974;2023-04-21T00:33:03;75866.91;;;-145.90;50.42
57562;BME280;43397;51.530;5.974;2023-04-21T00:35:29;75992.56;;;-145.90;53.22
57562;BME280;43397;51.530;5.974;2023-04-21T00:37:55;75978.38;;;-145.90;51.81
57562;BME280;43397;51.530;5.974;2023-04-21T00:40:22;75968.25;;;-145.90;51.47
57562;BME280;43397;51.530;5.974;2023-04-21T00:42:47;75692.59;;;-145.90;50.10
57562;BME280;43397;51.530;5.974;2023-04-21T00:45:13;75684.50;;;-145.90;46.29
57562;BME280;43397;51.530;5.974;2023-04-21T00:47:39;75729.09;;;-145.90;48.96
57562;BME280;43397;51.530;5.974;2023-04-21T00:50:05;75806.09;;;-145.90;49.77
57562;BME280;43397;51.530;5.974;2023-04-21T00:52:31;75700.72;;;-145.90;46.97
57562;BME280;43397;51.530;5.974;2023-04-21T00:54:58;75860.81;;;-145.90;49.53
57562;BME280;43397;51.530;5.974;2023-04-21T00:57:26;75858.78;;;-145.90;52.12
57562;BME280;43397;51.530;5.974;2023-04-21T00:59:51;75735.16;;;-145.90;49.56
57562;BME280;43397;51.530;5.974;2023-04-21T01:02:17;75818.25;;;-145.90;51.31
57562;BME280;43397;51.530;5.974;2023-04-21T01:04:43;75802.06;;;-145.90;48.68
57562;BME280;43397;51.530;5.974;2023-04-21T01:07:09;75459.53;;;-145.90;44.71
57562;BME280;43397;51.530;5.974;2023-04-21T01:09:34;75419.00;;;-145.90;55.72
57562;BME280;43397;51.530;5.974;2023-04-21T01:12:01;75745.28;;;-145.90;46.60
57562;BME280;43397;51.530;5.974;2023-04-21T01:14:29;75771.66;;;-145.90;50.13
57562;BME280;43397;51.530;5.974;2023-04-21T01:16:55;75840.56;;;-145.90;49.31
57562;BME280;43397;51.530;5.974;2023-04-21T01:19:21;75783.81;;;-145.90;49.50
57562;BME280;43397;51.530;5.974;2023-04-21T01:21:48;74833.38;;;-145.90;53.03
57562;BME280;43397;51.530;5.974;2023-04-21T01:24:13;75406.84;;;-145.90;42.22
57562;BME280;43397;51.530;5.974;2023-04-21T01:26:39;75516.28;;;-145.90;43.60
57562;BME280;43397;51.530;5.974;2023-04-21T01:29:05;75528.44;;;-145.90;42.98
57562;BME280;43397;51.530;5.974;2023-04-21T01:31:30;75445.34;;;-145.90;42.52
57562;BME280;43397;51.530;5.974;2023-04-21T01:33:56;75475.75;;;-145.90;42.73
57562;BME280;43397;51.530;5.974;2023-04-21T01:36:23;75335.91;;;-145.90;40.92
57562;BME280;43397;51.530;5.974;2023-04-21T01:38:50;75429.13;;;-145.90;40.85
57562;BME280;43397;51.530;5.974;2023-04-21T01:41:17;75410.91;;;-145.90;41.14
57562;BME280;43397;51.530;5.974;2023-04-21T01:43:42;75538.56;;;-145.90;42.60
57562;BME280;43397;51.530;5.974;2023-04-21T01:46:08;75518.31;;;-145.90;42.27
57562;BME280;43397;51.530;5.974;2023-04-21T01:48:35;75518.31;;;-145.90;42.53
57562;BME280;43397;51.530;5.974;2023-04-21T01:51:01;75467.66;;;-145.90;41.84
57562;BME280;43397;51.530;5.974;2023-04-21T01:53:27;75494.00;;;-145.90;42.09
57562;BME280;43397;51.530;5.974;2023-04-21T01:55:54;75575.06;;;-145.90;43.24
57562;BME280;43397;51.530;5.974;2023-04-21T01:58:19;75457.50;;;-145.90;41.56
57562;BME280;43397;51.530;5.974;2023-04-21T02:00:45;75496.03;;;-145.90;42.10
57562;BME280;43397;51.530;5.974;2023-04-21T02:03:11;75528.44;;;-145.90;42.81
57562;BME280;43397;51.530;5.974;2023-04-21T02:05:36;75623.69;;;-145.90;43.99
57562;BME280;43397;51.530;5.974;2023-04-21T02:08:03;75540.59;;;-145.90;43.18
57562;BME280;43397;51.530;5.974;2023-04-21T02:10:29;75613.56;;;-145.90;43.85
57562;BME280;43397;51.530;5.974;2023-04-21T02:12:56;75532.50;;;-145.90;43.23
57562;BME280;43397;51.530;5.974;2023-04-21T02:15:21;75516.28;;;-145.90;42.67
57562;BME280;43397;51.530;5.974;2023-04-21T02:17:47;75568.97;;;-145.90;43.44
57562;BME280;43397;51.530;5.974;2023-04-21T02:20:13;75660.19;;;-145.90;44.89
57562;BME280;43397;51.530;5.974;2023-04-21T02:22:38;75648.03;;;-145.90;44.82
57562;BME280;43397;51.530;5.974;2023-04-21T02:25:05;75552.75;;;-145.90;43.79
57562;BME280;43397;51.530;5.974;2023-04-21T02:27:30;75431.16;;;-145.90;41.61
57562;BME280;43397;51.530;5.974;2023-04-21T02:29:57;75526.41;;;-145.90;42.72
57562;BME280;43397;51.530;5.974;2023-04-21T02:32:23;75473.72;;;-145.90;42.25
57562;BME280;43397;51.530;5.974;2023-04-21T02:34:49;75469.66;;;-145.90;41.88
57562;BME280;43397;51.530;5.974;2023-04-21T02:37:14;75560.88;;;-145.90;43.49
57562;BME280;43397;51.530;5.974;2023-04-21T02:39:40;75560.88;;;-145.90;43.38
57562;BME280;43397;51.530;5.974;2023-04-21T02:42:06;75718.94;;;-145.90;45.32
57562;BME280;43397;51.530;5.974;2023-04-21T02:44:31;75716.94;;;-145.90;46.04
57562;BME280;43397;51.530;5.974;2023-04-21T02:46:58;75749.34;;;-145.90;46.28
57562;BME280;43397;51.530;5.974;2023-04-21T02:49:24;75725.03;;;-145.90;46.12
57562;BME280;43397;51.530;5.974;2023-04-21T02:51:49;75804.06;;;-145.90;47.23
57562;BME280;43397;51.530;5.974;2023-04-21T02:54:15;75840.56;;;-145.90;48.52
57562;BME280;43397;51.530;5.974;2023-04-21T02:56:41;75824.34;;;-145.90;48.39
57562;BME280;43397;51.530;5.974;2023-04-21T02:59:06;75852.72;;;-145.90;48.30
57562;BME280;43397;51.530;5.974;2023-04-21T03:01:32;75804.06;;;-145.90;47.93
57562;BME280;43397;51.530;5.974;2023-04-21T03:03:59;75870.97;;;-145.90;49.15
57562;BME280;43397;51.530;5.974;2023-04-21T03:06:25;75826.38;;;-145.90;48.66
57562;BME280;43397;51.530;5.974;2023-04-21T03:08:50;75779.75;;;-145.90;48.08
57562;BME280;43397;51.530;5.974;2023-04-21T03:11:16;75769.63;;;-145.90;47.34
57562;BME280;43397;51.530;5.974;2023-04-21T03:13:42;75720.97;;;-145.90;46.58
57562;BME280;43397;51.530;5.974;2023-04-21T03:16:07;75716.94;;;-145.90;46.45
57562;BME280;43397;51.530;5.974;2023-04-21T03:18:33;75706.78;;;-145.90;46.45
57562;BME280;43397;51.530;5.974;2023-04-21T03:21:00;75680.44;;;-145.90;46.15
57562;BME280;43397;51.530;5.974;2023-04-21T03:23:26;75698.69;;;-145.90;46.07
57562;BME280;43397;51.530;5.974;2023-04-21T03:25:52;75723.00;;;-145.90;46.13
57562;BME280;43397;51.530;5.974;2023-04-21T03:28:17;75723.00;;;-145.90;46.44
57562;BME280;43397;51.530;5.974;2023-04-21T03:30:43;75787.84;;;-145.90;47.42
57562;BME280;43397;51.530;5.974;2023-04-21T03:33:09;75820.28;;;-145.90;47.86
57562;BME280;43397;51.530;5.974;2023-04-21T03:35:34;75834.47;;;-145.90;48.17
57562;BME280;43397;51.530;5.974;2023-04-21T03:38:01;75840.56;;;-145.90;48.56
57562;BME280;43397;51.530;5.974;2023-04-21T03:40:27;75781.78;;;-145.90;47.20
57562;BME280;43397;51.530;5.974;2023-04-21T03:42:53;75881.09;;;-145.90;48.60
57562;BME280;43397;51.530;5.974;2023-04-21T03:45:18;75866.91;;;-145.90;48.93
57562;BME280;43397;51.530;5.974;2023-04-21T03:47:44;75822.31;;;-145.90;47.82
57562;BME280;43397;51.530;5.974;2023-04-21T03:50:10;75822.31;;;-145.90;47.67
57562;BME280;43397;51.530;5.974;2023-04-21T03:52:35;75883.13;;;-145.90;48.59
57562;BME280;43397;51.530;5.974;2023-04-21T03:55:03;75921.63;;;-145.90;49.01
57562;BME280;43397;51.530;5.974;2023-04-21T03:57:28;75828.41;;;-145.90;47.86
57562;BME280;43397;51.530;5.974;2023-04-21T03:59:54;75781.78;;;-145.90;47.19
57562;BME280;43397;51.530;5.974;2023-04-21T04:02:19;75830.44;;;-145.90;48.00
57562;BME280;43397;51.530;5.974;2023-04-21T04:04:45;75816.22;;;-145.90;47.77
57562;BME280;43397;51.530;5.974;2023-04-21T04:07:11;75858.78;;;-145.90;48.26
57562;BME280;43397;51.530;5.974;2023-04-21T04:09:37;75893.25;;;-145.90;48.44
57562;BME280;43397;51.530;5.974;2023-04-21T04:12:04;75810.16;;;-145.90;48.14
57562;BME280;43397;51.530;5.974;2023-04-21T04:14:29;75694.63;;;-145.90;45.83
57562;BME280;43397;51.530;5.974;2023-04-21T04:16:55;75696.66;;;-145.90;45.97
57562;BME280;43397;51.530;5.974;2023-04-21T04:19:22;75678.41;;;-145.90;45.35
57562;BME280;43397;51.530;5.974;2023-04-21T04:21:53;75613.56;;;-145.90;44.72
57562;BME280;43397;51.530;5.974;2023-04-21T04:24:19;75544.66;;;-145.90;43.14
57562;BME280;43397;51.530;5.974;2023-04-21T04:26:45;75546.69;;;-145.90;43.25
57562;BME280;43397;51.530;5.974;2023-04-21T04:29:12;75577.09;;;-145.90;43.43
57562;BME280;43397;51.530;5.974;2023-04-21T04:31:37;75512.22;;;-145.90;42.64
57562;BME280;43397;51.530;5.974;2023-04-21T04:34:03;75500.06;;;-145.90;41.87
57562;BME280;43397;51.530;5.974;2023-04-21T04:36:29;75595.31;;;-145.90;43.09
57562;BME280;43397;51.530;5.974;2023-04-21T04:38:55;75599.38;;;-145.90;42.99
57562;BME280;43397;51.530;5.974;2023-04-21T04:41:20;75643.97;;;-145.90;43.64
57562;BME280;43397;51.530;5.974;2023-04-21T04:43:46;75615.59;;;-145.90;43.84
57562;BME280;43397;51.530;5.974;2023-04-21T04:46:13;75552.75;;;-145.90;42.85
57562;BME280;43397;51.530;5.974;2023-04-21T04:48:39;75530.47;;;-145.90;42.03
57562;BME280;43397;51.530;5.974;2023-04-21T04:51:05;75621.66;;;-145.90;43.43
57562;BME280;43397;51.530;5.974;2023-04-21T04:53:30;75658.16;;;-145.90;44.46
57562;BME280;43397;51.530;5.974;2023-04-21T04:55:57;75664.22;;;-145.90;44.54
57562;BME280;43397;51.530;5.974;2023-04-21T04:58:23;75664.22;;;-145.90;44.68
57562;BME280;43397;51.530;5.974;2023-04-21T05:00:48;75702.75;;;-145.90;45.06
57562;BME280;43397;51.530;5.974;2023-04-21T05:03:16;75680.44;;;-145.90;44.63
57562;BME280;43397;51.530;5.974;2023-04-21T05:05:41;75769.63;;;-145.90;45.63
57562;BME280;43397;51.530;5.974;2023-04-21T05:08:07;75635.84;;;-145.90;44.08
57562;BME280;43397;51.530;5.974;2023-04-21T05:10:33;75591.28;;;-145.90;43.13
57562;BME280;43397;51.530;5.974;2023-04-21T05:12:58;75589.25;;;-145.90;42.70
57562;BME280;43397;51.530;5.974;2023-04-21T05:15:24;75589.25;;;-145.90;42.80
57562;BME280;43397;51.530;5.974;2023-04-21T05:17:50;75700.72;;;-145.90;43.51
57562;BME280;43397;51.530;5.974;2023-04-21T05:20:17;75548.72;;;-145.90;42.59
57562;BME280;43397;51.530;5.974;2023-04-21T05:22:42;75530.47;;;-145.90;41.94
57562;BME280;43397;51.530;5.974;2023-04-21T05:25:09;75449.41;;;-145.90;41.14
57562;BME280;43397;51.530;5.974;2023-04-21T05:27:35;75544.66;;;-145.90;41.81
57562;BME280;43397;51.530;5.974;2023-04-21T05:30:01;75465.63;;;-145.90;40.96
57562;BME280;43397;51.530;5.974;2023-04-21T05:32:26;75414.94;;;-145.90;40.48
57562;BME280;43397;51.530;5.974;2023-04-21T05:34:52;75461.56;;;-145.90;40.99
57562;BME280;43397;51.530;5.974;2023-04-21T05:37:19;75504.13;;;-145.90;41.74
57562;BME280;43397;51.530;5.974;2023-04-21T05:39:45;75554.78;;;-145.90;42.92
57562;BME280;43397;51.530;5.974;2023-04-21T05:42:10;75548.72;;;-145.90;42.93
57562;BME280;43397;51.530;5.974;2023-04-21T05:44:36;75536.56;;;-145.90;43.08
57562;BME280;43397;51.530;5.974;2023-04-21T05:47:03;75496.03;;;-145.90;42.73
57562;BME280;43397;51.530;5.974;2023-04-21T05:49:28;75489.94;;;-145.90;42.79
57562;BME280;43397;51.530;5.974;2023-04-21T05:51:54;75427.13;;;-145.90;41.62
57562;BME280;43397;51.530;5.974;2023-04-21T05:54:21;75489.94;;;-145.90;42.54
57562;BME280;43397;51.530;5.974;2023-04-21T05:56:47;75459.53;;;-145.90;42.62
57562;BME280;43397;51.530;5.974;2023-04-21T05:59:12;75469.66;;;-145.90;42.74
57562;BME280;43397;51.530;5.974;2023-04-21T06:01:38;75603.44;;;-145.90;44.08
57562;BME280;43397;51.530;5.974;2023-04-21T06:04:04;75692.59;;;-145.90;46.17
57562;BME280;43397;51.530;5.974;2023-04-21T06:06:29;75731.13;;;-145.90;47.76
57562;BME280;43397;51.530;5.974;2023-04-21T06:08:55;75763.53;;;-145.90;47.86
57562;BME280;43397;51.530;5.974;2023-04-21T06:11:22;75814.22;;;-145.90;48.67
57562;BME280;43397;51.530;5.974;2023-04-21T06:13:48;75743.28;;;-145.90;47.58
57562;BME280;43397;51.530;5.974;2023-04-21T06:16:14;75676.38;;;-145.90;46.82
57562;BME280;43397;51.530;5.974;2023-04-21T06:18:39;75568.97;;;-145.90;46.00
57562;BME280;43397;51.530;5.974;2023-04-21T06:21:05;75595.31;;;-145.90;46.47
57562;BME280;43397;51.530;5.974;2023-04-21T06:23:31;75613.56;;;-145.90;47.20
57562;BME280;43397;51.530;5.974;2023-04-21T06:25:59;75656.13;;;-145.90;47.06
57562;BME280;43397;51.530;5.974;2023-04-21T06:28:26;75595.31;;;-145.90;46.95
57562;BME280;43397;51.530;5.974;2023-04-21T06:30:52;75579.09;;;-145.90;46.91
57562;BME280;43397;51.530;5.974;2023-04-21T06:33:18;75550.75;;;-145.90;46.60
57562;BME280;43397;51.530;5.974;2023-04-21T06:35:43;75524.38;;;-145.90;45.68
57562;BME280;43397;51.530;5.974;2023-04-21T06:38:09;75591.28;;;-145.90;46.71
57562;BME280;43397;51.530;5.974;2023-04-21T06:40:35;75619.63;;;-145.90;46.36
57562;BME280;43397;51.530;5.974;2023-04-21T06:43:00;75520.34;;;-145.90;46.20
57562;BME280;43397;51.530;5.974;2023-04-21T06:45:27;75439.28;;;-145.90;44.99
57562;BME280;43397;51.530;5.974;2023-04-21T06:47:53;75538.56;;;-145.90;44.93
57562;BME280;43397;51.530;5.974;2023-04-21T06:50:18;75548.72;;;-145.90;45.70
57562;BME280;43397;51.530;5.974;2023-04-21T06:52:44;75560.88;;;-145.90;46.14
57562;BME280;43397;51.530;5.974;2023-04-21T06:55:10;75601.41;;;-145.90;45.98
57562;BME280;43397;51.530;5.974;2023-04-21T06:57:36;75607.47;;;-145.90;46.05
57562;BME280;43397;51.530;5.974;2023-04-21T07:00:02;75439.28;;;-145.90;44.46
57562;BME280;43397;51.530;5.974;2023-04-21T07:02:29;75506.16;;;-145.90;44.97
57562;BME280;43397;51.530;5.974;2023-04-21T07:04:54;75376.44;;;-145.90;43.66
57562;BME280;43397;51.530;5.974;2023-04-21T07:07:21;75433.19;;;-145.90;44.84
57562;BME280;43397;51.530;5.974;2023-04-21T07:09:46;75520.34;;;-145.90;44.74
57562;BME280;43397;51.530;5.974;2023-04-21T07:12:12;75530.47;;;-145.90;45.74
57562;BME280;43397;51.530;5.974;2023-04-21T07:14:37;75625.72;;;-145.90;45.89
57562;BME280;43397;51.530;5.974;2023-04-21T07:17:03;75662.19;;;-145.90;46.51
57562;BME280;43397;51.530;5.974;2023-04-21T07:19:30;75524.38;;;-145.90;44.13
57562;BME280;43397;51.530;5.974;2023-04-21T07:21:56;75396.72;;;-145.90;44.16
57562;BME280;43397;51.530;5.974;2023-04-21T07:24:21;75372.41;;;-145.90;42.94
57562;BME280;43397;51.530;5.974;2023-04-21T07:26:47;75380.50;;;-145.90;43.59
57562;BME280;43397;51.530;5.974;2023-04-21T07:29:13;75506.16;;;-145.90;43.33
57562;BME280;43397;51.530;5.974;2023-04-21T07:31:38;75376.44;;;-145.90;41.96
57562;BME280;43397;51.530;5.974;2023-04-21T07:34:04;75275.13;;;-145.90;41.80
57562;BME280;43397;51.530;5.974;2023-04-21T07:36:31;75327.81;;;-145.90;42.91
57562;BME280;43397;51.530;5.974;2023-04-21T07:38:57;75443.31;;;-145.90;42.73
57562;BME280;43397;51.530;5.974;2023-04-21T07:41:22;75220.41;;;-145.90;40.71
57562;BME280;43397;51.530;5.974;2023-04-21T07:43:48;75368.34;;;-145.90;41.47
57562;BME280;43397;51.530;5.974;2023-04-21T07:46:14;75346.06;;;-145.90;40.98
57562;BME280;43397;51.530;5.974;2023-04-21T07:48:39;75352.13;;;-145.90;41.55
57562;BME280;43397;51.530;5.974;2023-04-21T07:51:05;75258.91;;;-145.90;40.10
57562;BME280;43397;51.530;5.974;2023-04-21T07:53:32;75250.81;;;-145.90;40.45
57562;BME280;43397;51.530;5.974;2023-04-21T07:55:58;75224.47;;;-145.90;39.47
57562;BME280;43397;51.530;5.974;2023-04-21T07:58:24;75252.84;;;-145.90;40.41
57562;BME280;43397;51.530;5.974;2023-04-21T08:00:50;75404.81;;;-145.90;40.79
57562;BME280;43397;51.530;5.974;2023-04-21T08:03:15;75358.22;;;-145.90;41.32
57562;BME280;43397;51.530;5.974;2023-04-21T08:05:41;75408.88;;;-145.90;42.46
57562;BME280;43397;51.530;5.974;2023-04-21T08:08:07;75260.94;;;-145.90;39.93
57562;BME280;43397;51.530;5.974;2023-04-21T08:10:34;75309.56;;;-145.90;40.46
57562;BME280;43397;51.530;5.974;2023-04-21T08:13:00;75137.31;;;-145.90;38.89
57562;BME280;43397;51.530;5.974;2023-04-21T08:15:25;75208.25;;;-145.90;39.03
57562;BME280;43397;51.530;5.974;2023-04-21T08:17:51;75254.84;;;-145.90;40.87
57562;BME280;43397;51.530;5.974;2023-04-21T08:20:17;75256.88;;;-145.90;40.13
57562;BME280;43397;51.530;5.974;2023-04-21T08:22:43;75372.41;;;-145.90;41.15
57562;BME280;43397;51.530;5.974;2023-04-21T08:25:08;75092.75;;;-145.90;37.98
57562;BME280;43397;51.530;5.974;2023-04-21T08:27:37;75090.72;;;-145.90;38.79
57562;BME280;43397;51.530;5.974;2023-04-21T08:30:04;74952.91;;;-145.90;37.35
57562;BME280;43397;51.530;5.974;2023-04-21T08:32:30;74977.25;;;-145.90;36.45
57562;BME280;43397;51.530;5.974;2023-04-21T08:34:56;75246.75;;;-145.90;39.17
57562;BME280;43397;51.530;5.974;2023-04-21T08:37:22;75222.44;;;-145.90;39.70
57562;BME280;43397;51.530;5.974;2023-04-21T08:39:48;75068.44;;;-145.90;38.38
57562;BME280;43397;51.530;5.974;2023-04-21T08:42:15;75064.38;;;-145.90;39.68
57562;BME280;43397;51.530;5.974;2023-04-21T08:44:42;75196.09;;;-145.90;38.89
57562;BME280;43397;51.530;5.974;2023-04-21T08:47:09;75287.28;;;-145.90;40.92
57562;BME280;43397;51.530;5.974;2023-04-21T08:49:35;75185.97;;;-145.90;39.38
57562;BME280;43397;51.530;5.974;2023-04-21T08:52:02;75228.50;;;-145.90;40.75
57562;BME280;43397;51.530;5.974;2023-04-21T08:54:28;75248.78;;;-145.90;40.57
57562;BME280;43397;51.530;5.974;2023-04-21T08:56:53;75214.31;;;-145.90;40.27
57562;BME280;43397;51.530;5.974;2023-04-21T08:59:19;75374.41;;;-145.90;41.52
57562;BME280;43397;51.530;5.974;2023-04-21T09:02:08;75287.28;;;-145.90;40.15
57562;BME280;43397;51.530;5.974;2023-04-21T09:04:37;75313.63;;;-145.90;40.83
57562;BME280;43397;51.530;5.974;2023-04-21T09:07:03;75285.25;;;-145.90;40.19
57562;BME280;43397;51.530;5.974;2023-04-21T09:09:28;75362.25;;;-145.90;41.12
57562;BME280;43397;51.530;5.974;2023-04-21T09:11:55;75435.22;;;-145.90;42.17
57562;BME280;43397;51.530;5.974;2023-04-21T09:14:20;75374.41;;;-145.90;42.52
57562;BME280;43397;51.530;5.974;2023-04-21T09:16:58;75313.63;;;-145.90;40.79
57562;BME280;43397;51.530;5.974;2023-04-21T09:19:26;75352.13;;;-145.90;42.17
57562;BME280;43397;51.530;5.974;2023-04-21T09:21:52;75390.63;;;-145.90;41.95
57562;BME280;43397;51.530;5.974;2023-04-21T09:24:18;75449.41;;;-145.90;42.89
57562;BME280;43397;51.530;5.974;2023-04-21T09:26:43;75479.81;;;-145.90;43.06
57562;BME280;43397;51.530;5.974;2023-04-21T09:29:09;75388.59;;;-145.90;43.04
57562;BME280;43397;51.530;5.974;2023-04-21T09:31:35;75313.63;;;-145.90;41.53
57562;BME280;43397;51.530;5.974;2023-04-21T09:34:01;75390.63;;;-145.90;42.92
57562;BME280;43397;51.530;5.974;2023-04-21T09:36:29;75262.97;;;-145.90;40.90
57562;BME280;43397;51.530;5.974;2023-04-21T09:38:55;75271.06;;;-145.90;40.95
57562;BME280;43397;51.530;5.974;2023-04-21T09:41:21;75364.28;;;-145.90;41.49
57562;BME280;43397;51.530;5.974;2023-04-21T09:43:47;75410.91;;;-145.90;42.12
57562;BME280;43397;51.530;5.974;2023-04-21T09:46:15;75398.75;;;-145.90;42.15
57562;BME280;43397;51.530;5.974;2023-04-21T09:48:43;75368.34;;;-145.90;42.06
57562;BME280;43397;51.530;5.974;2023-04-21T09:51:10;75307.53;;;-145.90;42.97
57562;BME280;43397;51.530;5.974;2023-04-21T09:53:38;75218.38;;;-145.90;42.35
57562;BME280;43397;51.530;5.974;2023-04-21T09:56:05;75339.97;;;-145.90;41.67
57562;BME280;43397;51.530;5.974;2023-04-21T09:58:40;75254.84;;;-145.90;41.91
57562;BME280;43397;51.530;5.974;2023-04-21T10:01:06;75370.38;;;-145.90;42.13
57562;BME280;43397;51.530;5.974;2023-04-21T10:03:34;75181.91;;;-145.90;40.90
57562;BME280;43397;51.530;5.974;2023-04-21T10:06:03;75307.53;;;-145.90;40.27
57562;BME280;43397;51.530;5.974;2023-04-21T10:08:29;75262.97;;;-145.90;40.34
57562;BME280;43397;51.530;5.974;2023-04-21T10:10:57;75240.69;;;-145.90;40.11
57562;BME280;43397;51.530;5.974;2023-04-21T10:13:24;75088.69;;;-145.90;40.13
57562;BME280;43397;51.530;5.974;2023-04-21T10:16:00;75169.75;;;-145.90;39.51
57562;BME280;43397;51.530;5.974;2023-04-21T10:18:27;75143.41;;;-145.90;39.13
57562;BME280;43397;51.530;5.974;2023-04-21T10:20:54;75262.97;;;-145.90;40.27
57562;BME280;43397;51.530;5.974;2023-04-21T10:23:31;75141.38;;;-145.90;38.78
57562;BME280;43397;51.530;5.974;2023-04-21T10:26:07;75147.47;;;-145.90;40.31
57562;BME280;43397;51.530;5.974;2023-04-21T10:28:41;75185.97;;;-145.90;40.03
57562;BME280;43397;51.530;5.974;2023-04-21T10:31:18;75260.94;;;-145.90;40.68
57562;BME280;43397;51.530;5.974;2023-04-21T10:34:15;75210.28;;;-145.90;41.08
57562;BME280;43397;51.530;5.974;2023-04-21T10:36:42;75066.41;;;-145.90;38.75
57562;BME280;43397;51.530;5.974;2023-04-21T10:39:24;75104.91;;;-145.90;40.10
57562;BME280;43397;51.530;5.974;2023-04-21T10:41:54;75119.09;;;-145.90;38.86
57562;BME280;43397;51.530;5.974;2023-04-21T10:44:20;75127.19;;;-145.90;39.64
57562;BME280;43397;51.530;5.974;2023-04-21T10:46:47;75143.41;;;-145.90;38.80
57562;BME280;43397;51.530;5.974;2023-04-21T10:49:20;75062.34;;;-145.90;39.35
57562;BME280;43397;51.530;5.974;2023-04-21T10:52:03;75086.66;;;-145.90;39.08
57562;BME280;43397;51.530;5.974;2023-04-21T10:54:30;75143.41;;;-145.90;39.55
57562;BME280;43397;51.530;5.974;2023-04-21T10:57:04;75080.59;;;-145.90;40.14
57562;BME280;43397;51.530;5.974;2023-04-21T10:59:30;75086.66;;;-145.90;39.54
57562;BME280;43397;51.530;5.974;2023-04-21T11:01:56;75027.91;;;-145.90;39.94
57562;BME280;43397;51.530;5.974;2023-04-21T11:04:22;74979.25;;;-145.90;38.28
57562;BME280;43397;51.530;5.974;2023-04-21T11:07:04;75123.13;;;-145.90;39.18
57562;BME280;43397;51.530;5.974;2023-04-21T11:09:30;74975.22;;;-145.90;39.73
57562;BME280;43397;51.530;5.974;2023-04-21T11:11:57;75019.78;;;-145.90;39.00
57562;BME280;43397;51.530;5.974;2023-04-21T11:14:24;74987.38;;;-145.90;38.68
57562;BME280;43397;51.530;5.974;2023-04-21T11:16:50;74981.28;;;-145.90;38.20
57562;BME280;43397;51.530;5.974;2023-04-21T11:19:16;74877.94;;;-145.90;37.85
57562;BME280;43397;51.530;5.974;2023-04-21T11:21:42;74904.28;;;-145.90;37.21
57562;BME280;43397;51.530;5.974;2023-04-21T11:24:08;74784.75;;;-145.90;37.67
57562;BME280;43397;51.530;5.974;2023-04-21T11:26:35;74890.09;;;-145.90;37.27
57562;BME280;43397;51.530;5.974;2023-04-21T11:29:02;74831.34;;;-145.90;37.13
57562;BME280;43397;51.530;5.974;2023-04-21T11:31:29;74946.84;;;-145.90;37.74
57562;BME280;43397;51.530;5.974;2023-04-21T11:33:55;74875.91;;;-145.90;36.74
57562;BME280;43397;51.530;5.974;2023-04-21T11:36:22;74908.34;;;-145.90;37.00
57562;BME280;43397;51.530;5.974;2023-04-21T11:38:48;74926.59;;;-145.90;37.34
57562;BME280;43397;51.530;5.974;2023-04-21T11:41:19;74898.22;;;-145.90;36.91
57562;BME280;43397;51.530;5.974;2023-04-21T11:43:45;74847.56;;;-145.90;36.05
57562;BME280;43397;51.530;5.974;2023-04-21T11:46:12;74944.81;;;-145.90;37.37
57562;BME280;43397;51.530;5.974;2023-04-21T11:48:39;74894.16;;;-145.90;36.30
57562;BME280;43397;51.530;5.974;2023-04-21T11:51:05;74969.13;;;-145.90;37.92
57562;BME280;43397;51.530;5.974;2023-04-21T11:53:31;74948.88;;;-145.90;37.19
57562;BME280;43397;51.530;5.974;2023-04-21T11:55:57;74975.22;;;-145.90;37.74
57562;BME280;43397;51.530;5.974;2023-04-21T11:58:22;74790.81;;;-145.90;35.80
57562;BME280;43397;51.530;5.974;2023-04-21T12:00:49;74825.25;;;-145.90;35.93
57562;BME280;43397;51.530;5.974;2023-04-21T12:03:15;74987.38;;;-145.90;37.00
57562;BME280;43397;51.530;5.974;2023-04-21T12:05:45;74971.16;;;-145.90;37.51
57562;BME280;43397;51.530;5.974;2023-04-21T12:08:12;74956.97;;;-145.90;36.79
57562;BME280;43397;51.530;5.974;2023-04-21T12:10:43;74677.34;;;-145.90;35.38
57562;BME280;43397;51.530;5.974;2023-04-21T12:13:09;74875.91;;;-145.90;35.91
57562;BME280;43397;51.530;5.974;2023-04-21T12:15:34;74640.88;;;-145.90;33.69
57562;BME280;43397;51.530;5.974;2023-04-21T12:18:00;74695.59;;;-145.90;34.86
57562;BME280;43397;51.530;5.974;2023-04-21T12:20:28;74841.47;;;-145.90;36.23
57562;BME280;43397;51.530;5.974;2023-04-21T12:22:55;74725.97;;;-145.90;35.72
57562;BME280;43397;51.530;5.974;2023-04-21T12:25:21;74651.00;;;-145.90;34.70
57562;BME280;43397;51.530;5.974;2023-04-21T12:27:47;74539.56;;;-145.90;33.62
57562;BME280;43397;51.530;5.974;2023-04-21T12:30:13;74612.50;;;-145.90;36.04
57562;BME280;43397;51.530;5.974;2023-04-21T12:32:38;74798.94;;;-145.90;36.75
57562;BME280;43397;51.530;5.974;2023-04-21T12:35:05;74792.84;;;-145.90;36.89
57562;BME280;43397;51.530;5.974;2023-04-21T12:37:31;74574.00;;;-145.90;35.06